sensor_id;sensor_type;location;lat;lon;timestamp;P1;P4;P2;P0;N10;N4;N25;N1;N05;TS
71906;SPS30;59781;52.090;5.030;2023-02-25T00:01:23;3.55;3.37;2.51;1.36;10.99;10.96;10.77;9.62;6.55;0.95
71906;SPS30;59781;52.090;5.030;2023-02-25T00:03:53;4.12;3.92;2.92;1.60;12.95;12.92;12.70;11.38;7.80;0.94
71906;SPS30;59781;52.090;5.030;2023-02-25T00:06:21;3.65;3.47;2.59;1.41;11.40;11.37;11.17;10.00;6.83;0.94
71906;SPS30;59781;52.090;5.030;2023-02-25T00:08:48;3.91;3.73;2.80;1.57;12.66;12.62;12.42;11.19;7.77;0.92
71906;SPS30;59781;52.090;5.030;2023-02-25T00:11:16;4.14;3.95;2.97;1.66;13.44;13.41;13.19;11.89;8.26;0.92
71906;SPS30;59781;52.090;5.030;2023-02-25T00:13:44;4.32;4.12;3.09;1.73;14.01;13.97;13.75;12.39;8.61;0.92
71906;SPS30;59781;52.090;5.030;2023-02-25T00:16:12;4.49;4.28;3.23;1.84;14.85;14.81;14.58;13.19;9.24;0.93
71906;SPS30;59781;52.090;5.030;2023-02-25T00:18:39;5.49;5.23;3.94;2.22;17.98;17.93;17.65;15.94;11.12;0.95
71906;SPS30;59781;52.090;5.030;2023-02-25T00:21:08;5.15;4.91;3.68;2.05;16.61;16.56;16.30;14.67;10.17;0.97
71906;SPS30;59781;52.090;5.030;2023-02-25T00:23:39;5.69;5.42;4.07;2.27;18.32;18.27;17.98;16.18;11.20;0.97
71906;SPS30;59781;52.090;5.030;2023-02-25T00:26:11;6.01;5.72;4.25;2.31;18.68;18.62;18.31;16.37;11.15;0.98
71906;SPS30;59781;52.090;5.030;2023-02-25T00:28:38;4.92;4.68;3.47;1.87;15.12;15.08;14.82;13.21;8.95;0.98
71906;SPS30;59781;52.090;5.030;2023-02-25T00:31:09;4.95;4.70;3.49;1.88;15.20;15.16;14.90;13.29;9.01;0.98
71906;SPS30;59781;52.090;5.030;2023-02-25T00:33:42;5.03;4.79;3.60;2.00;16.18;16.13;15.87;14.28;9.88;0.97
71906;SPS30;59781;52.090;5.030;2023-02-25T00:36:09;5.10;4.85;3.63;2.00;16.16;16.11;15.84;14.22;9.78;0.98
71906;SPS30;59781;52.090;5.030;2023-02-25T00:38:48;6.10;5.80;4.28;2.28;18.45;18.39;18.06;16.06;10.80;1.01
71906;SPS30;59781;52.090;5.030;2023-02-25T00:41:17;5.08;4.83;3.58;1.92;15.52;15.47;15.20;13.55;9.16;1.00
71906;SPS30;59781;52.090;5.030;2023-02-25T00:43:48;5.79;5.51;4.06;2.16;17.47;17.41;17.10;15.19;10.20;1.00
71906;SPS30;59781;52.090;5.030;2023-02-25T00:46:17;5.74;5.45;4.00;2.08;16.89;16.84;16.52;14.61;9.68;1.01
71906;SPS30;59781;52.090;5.030;2023-02-25T00:48:45;6.08;5.77;4.24;2.22;17.97;17.92;17.59;15.56;10.35;1.01
71906;SPS30;59781;52.090;5.030;2023-02-25T00:51:13;6.04;5.74;4.26;2.30;18.59;18.53;18.21;16.25;11.02;0.99
71906;SPS30;59781;52.090;5.030;2023-02-25T00:53:44;6.35;6.03;4.42;2.30;18.66;18.60;18.25;16.13;10.69;1.02
71906;SPS30;59781;52.090;5.030;2023-02-25T00:56:11;6.12;5.81;4.28;2.26;18.33;18.28;17.95;15.93;10.66;1.01
71906;SPS30;59781;52.090;5.030;2023-02-25T00:58:40;6.60;6.27;4.62;2.44;19.76;19.70;19.34;17.16;11.48;1.01
71906;SPS30;59781;52.090;5.030;2023-02-25T01:01:20;6.98;6.63;4.84;2.49;20.22;20.15;19.77;17.41;11.45;1.04
71906;SPS30;59781;52.090;5.030;2023-02-25T01:03:56;6.77;6.42;4.68;2.39;19.37;19.31;18.93;16.64;10.87;1.04
71906;SPS30;59781;52.090;5.030;2023-02-25T01:06:24;7.41;7.04;5.15;2.67;21.64;21.57;21.16;18.68;12.33;1.04
71906;SPS30;59781;52.090;5.030;2023-02-25T01:08:52;7.96;7.54;5.44;2.70;21.87;21.79;21.34;18.58;11.86;1.07
71906;SPS30;59781;52.090;5.030;2023-02-25T01:11:21;7.33;6.95;5.04;2.53;20.55;20.47;20.06;17.55;11.33;1.05
71906;SPS30;59781;52.090;5.030;2023-02-25T01:13:57;7.26;6.89;5.03;2.59;21.00;20.93;20.53;18.09;11.89;1.01
71906;SPS30;59781;52.090;5.030;2023-02-25T01:16:33;7.72;7.33;5.35;2.74;22.20;22.12;21.70;19.09;12.50;1.02
71906;SPS30;59781;52.090;5.030;2023-02-25T01:19:02;9.57;9.06;6.55;3.25;26.37;26.27;25.73;22.42;14.33;1.05
71906;SPS30;59781;52.090;5.030;2023-02-25T01:21:34;8.96;8.49;6.11;3.01;24.40;24.32;23.81;20.69;13.13;1.06
71906;SPS30;59781;52.090;5.030;2023-02-25T01:24:05;8.62;8.17;5.94;3.01;24.43;24.35;23.87;20.93;13.60;1.04
71906;SPS30;59781;52.090;5.030;2023-02-25T01:26:37;8.17;7.75;5.67;2.93;23.74;23.66;23.21;20.47;13.48;1.02
71906;SPS30;59781;52.090;5.030;2023-02-25T01:29:11;8.68;8.23;5.97;3.01;24.43;24.35;23.86;20.89;13.52;1.03
71906;SPS30;59781;52.090;5.030;2023-02-25T01:31:42;8.74;8.30;6.05;3.10;25.16;25.07;24.59;21.64;14.17;1.02
71906;SPS30;59781;52.090;5.030;2023-02-25T01:34:09;9.33;8.85;6.44;3.28;26.62;26.53;26.01;22.85;14.90;1.02
71906;SPS30;59781;52.090;5.030;2023-02-25T01:36:40;9.53;9.03;6.53;3.26;26.46;26.37;25.83;22.55;14.48;1.04
71906;SPS30;59781;52.090;5.030;2023-02-25T01:39:07;8.97;8.50;6.17;3.10;25.16;25.07;24.57;21.49;13.88;1.03
71906;SPS30;59781;52.090;5.030;2023-02-25T01:41:34;9.52;9.01;6.46;3.12;25.37;25.28;24.73;21.38;13.38;1.06
71906;SPS30;59781;52.090;5.030;2023-02-25T01:46:37;8.91;8.44;6.10;3.03;24.56;24.48;23.97;20.89;13.35;1.02
71906;SPS30;59781;52.090;5.030;2023-02-25T01:49:11;9.64;9.14;6.67;3.41;27.63;27.53;27.00;23.73;15.51;1.01
71906;SPS30;59781;52.090;5.030;2023-02-25T01:51:42;8.66;8.21;6.00;3.09;25.04;24.95;24.48;21.56;14.17;1.01
71906;SPS30;59781;52.090;5.030;2023-02-25T01:54:14;9.18;8.70;6.28;3.12;25.28;25.19;24.67;21.49;13.73;1.04
71906;SPS30;59781;52.090;5.030;2023-02-25T01:56:53;9.50;8.99;6.45;3.13;25.39;25.29;24.74;21.41;13.43;1.06
71906;SPS30;59781;52.090;5.030;2023-02-25T01:59:24;9.14;8.67;6.35;3.29;26.68;26.59;26.09;23.03;15.21;1.00
71906;SPS30;59781;52.090;5.030;2023-02-25T02:01:53;9.69;9.19;6.69;3.41;27.64;27.55;27.01;23.72;15.47;1.01
71906;SPS30;59781;52.090;5.030;2023-02-25T02:04:20;9.02;8.55;6.23;3.18;25.78;25.69;25.19;22.14;14.45;1.01
71906;SPS30;59781;52.090;5.030;2023-02-25T02:06:47;10.74;10.21;7.55;4.04;32.67;32.57;32.00;28.48;19.20;0.98
71906;SPS30;59781;52.090;5.030;2023-02-25T02:09:17;9.37;8.90;6.57;3.49;28.22;28.13;27.63;24.54;16.47;0.98
71906;SPS30;59781;52.090;5.030;2023-02-25T02:11:49;9.56;9.10;6.75;3.65;29.53;29.44;28.93;25.83;17.54;0.96
71906;SPS30;59781;52.090;5.030;2023-02-25T02:14:16;9.49;9.00;6.56;3.36;27.23;27.14;26.61;23.40;15.31;1.01
71906;SPS30;59781;52.090;5.030;2023-02-25T02:20:22;10.16;9.63;6.94;3.43;27.87;27.77;27.19;23.67;15.08;1.08
71906;SPS30;59781;52.090;5.030;2023-02-25T02:28:31;10.99;10.42;7.59;3.87;31.36;31.26;30.65;26.92;17.56;1.04
71906;SPS30;59781;52.090;5.030;2023-02-25T02:37:34;10.53;9.97;7.15;3.47;28.20;28.09;27.49;23.79;14.94;1.07
71906;SPS30;59781;52.090;5.030;2023-02-25T02:46:25;11.69;11.05;7.85;3.69;29.96;29.84;29.15;24.97;15.22;1.11
71906;SPS30;59781;52.090;5.030;2023-02-25T02:49:11;10.76;10.19;7.33;3.59;29.13;29.02;28.40;24.65;15.58;1.06
71906;SPS30;59781;52.090;5.030;2023-02-25T02:52:04;11.24;10.65;7.68;3.79;30.73;30.62;29.98;26.08;16.59;1.04
71906;SPS30;59781;52.090;5.030;2023-02-25T02:54:47;10.26;9.73;7.08;3.59;29.12;29.02;28.45;24.95;16.22;1.01
71906;SPS30;59781;52.090;5.030;2023-02-25T02:57:21;10.51;9.97;7.25;3.68;29.81;29.70;29.12;25.54;16.60;1.01
71906;SPS30;59781;52.090;5.030;2023-02-25T02:59:54;10.86;10.29;7.42;3.66;29.68;29.57;28.95;25.18;16.01;1.06
71906;SPS30;59781;52.090;5.030;2023-02-25T03:02:29;11.37;10.75;7.67;3.66;29.73;29.62;28.95;24.92;15.41;1.08
71906;SPS30;59781;52.090;5.030;2023-02-25T03:05:05;11.88;11.24;8.04;3.86;31.33;31.21;30.52;26.32;16.36;1.08
71906;SPS30;59781;52.090;5.030;2023-02-25T03:07:40;12.43;11.76;8.41;4.03;32.73;32.60;31.88;27.48;17.06;1.07
71906;SPS30;59781;52.090;5.030;2023-02-25T03:10:20;12.73;12.04;8.56;4.03;32.75;32.62;31.88;27.32;16.70;1.09
71906;SPS30;59781;52.090;5.030;2023-02-25T03:12:47;12.00;11.35;8.11;3.89;31.57;31.45;30.75;26.51;16.46;1.07
71906;SPS30;59781;52.090;5.030;2023-02-25T03:15:13;10.56;9.99;7.18;3.51;28.46;28.36;27.75;24.06;15.17;1.06
71906;SPS30;59781;52.090;5.030;2023-02-25T03:17:41;11.19;10.61;7.67;3.82;30.97;30.86;30.23;26.37;16.89;1.03
71906;SPS30;59781;52.090;5.030;2023-02-25T03:20:22;10.86;10.28;7.38;3.60;29.25;29.14;28.52;24.72;15.58;1.05
71906;SPS30;59781;52.090;5.030;2023-02-25T03:23:00;12.04;11.39;8.14;3.90;31.70;31.58;30.88;26.62;16.53;1.06
71906;SPS30;59781;52.090;5.030;2023-02-25T03:25:40;11.90;11.27;8.13;4.01;32.55;32.43;31.76;27.63;17.57;1.04
71906;SPS30;59781;52.090;5.030;2023-02-25T03:28:28;12.53;11.87;8.60;4.30;34.90;34.77;34.07;29.76;19.15;1.03
71906;SPS30;59781;52.090;5.030;2023-02-25T03:31:13;11.26;10.67;7.74;3.90;31.64;31.53;30.90;27.04;17.48;1.02
71906;SPS30;59781;52.090;5.030;2023-02-25T03:33:53;11.01;10.45;7.61;3.88;31.49;31.39;30.78;27.04;17.66;1.01
71906;SPS30;59781;52.090;5.030;2023-02-25T03:36:39;10.17;9.65;7.06;3.66;29.67;29.57;29.01;25.60;16.90;0.98
71906;SPS30;59781;52.090;5.030;2023-02-25T03:39:20;10.70;10.14;7.37;3.72;30.18;30.08;29.48;25.83;16.74;1.02
71906;SPS30;59781;52.090;5.030;2023-02-25T03:41:54;10.83;10.27;7.51;3.87;31.37;31.27;30.67;27.03;17.78;1.00
71906;SPS30;59781;52.090;5.030;2023-02-25T03:44:36;11.01;10.44;7.59;3.85;31.19;31.09;30.47;26.72;17.36;1.02
71906;SPS30;59781;52.090;5.030;2023-02-25T03:47:11;10.07;9.55;6.97;3.57;28.95;28.86;28.30;24.90;16.31;1.01
71906;SPS30;59781;52.090;5.030;2023-02-25T03:49:45;11.17;10.59;7.71;3.93;31.90;31.79;31.17;27.38;17.87;1.01
71906;SPS30;59781;52.090;5.030;2023-02-25T03:52:24;11.93;11.31;8.21;4.15;33.62;33.50;32.83;28.76;18.62;1.03
71906;SPS30;59781;52.090;5.030;2023-02-25T03:54:57;9.70;9.21;6.76;3.54;28.67;28.58;28.05;24.82;16.50;1.00
71906;SPS30;59781;52.090;5.030;2023-02-25T03:57:25;10.85;10.29;7.52;3.88;31.42;31.32;30.72;27.07;17.80;1.01
71906;SPS30;59781;52.090;5.030;2023-02-25T04:00:04;11.06;10.48;7.56;3.73;30.28;30.18;29.55;25.71;16.37;1.03
71906;SPS30;59781;52.090;5.030;2023-02-25T04:02:40;9.84;9.33;6.74;3.36;27.22;27.13;26.57;23.17;14.84;1.03
71906;SPS30;59781;52.090;5.030;2023-02-25T04:05:06;10.14;9.61;6.93;3.43;27.85;27.75;27.18;23.67;15.09;1.04
71906;SPS30;59781;52.090;5.030;2023-02-25T04:07:34;9.32;8.84;6.46;3.32;26.90;26.81;26.29;23.15;15.19;1.00
71906;SPS30;59781;52.090;5.030;2023-02-25T04:10:00;9.80;9.29;6.72;3.37;27.31;27.21;26.66;23.29;14.99;1.01
71906;SPS30;59781;52.090;5.030;2023-02-25T04:12:27;9.21;8.74;6.37;3.26;26.42;26.34;25.83;22.71;14.85;1.00
71906;SPS30;59781;52.090;5.030;2023-02-25T04:14:53;9.90;9.37;6.76;3.34;27.11;27.01;26.45;23.01;14.65;1.03
71906;SPS30;59781;52.090;5.030;2023-02-25T04:17:19;8.94;8.48;6.16;3.12;25.31;25.23;24.73;21.68;14.07;1.01
71906;SPS30;59781;52.090;5.030;2023-02-25T04:19:45;10.27;9.73;7.05;3.54;28.70;28.60;28.02;24.50;15.79;1.02
71906;SPS30;59781;52.090;5.030;2023-02-25T04:22:10;9.60;9.10;6.59;3.30;26.74;26.65;26.11;22.80;14.67;1.03
71906;SPS30;59781;52.090;5.030;2023-02-25T04:24:36;8.85;8.40;6.14;3.16;25.64;25.55;25.06;22.08;14.52;1.01
71906;SPS30;59781;52.090;5.030;2023-02-25T04:27:02;8.42;8.00;5.87;3.06;24.80;24.72;24.27;21.46;14.23;1.00
71906;SPS30;59781;52.090;5.030;2023-02-25T04:29:28;8.28;7.86;5.76;2.98;24.14;24.07;23.61;20.83;13.74;1.01
71906;SPS30;59781;52.090;5.030;2023-02-25T04:31:54;8.10;7.69;5.63;2.91;23.59;23.51;23.07;20.35;13.41;1.01
71906;SPS30;59781;52.090;5.030;2023-02-25T04:34:21;7.93;7.52;5.49;2.81;22.77;22.70;22.26;19.57;12.81;1.03
71906;SPS30;59781;52.090;5.030;2023-02-25T04:36:47;8.18;7.77;5.74;3.05;24.68;24.60;24.16;21.47;14.42;1.00
71906;SPS30;59781;52.090;5.030;2023-02-25T04:39:14;6.92;6.58;4.87;2.62;21.20;21.13;20.77;18.51;12.52;0.98
71906;SPS30;59781;52.090;5.030;2023-02-25T04:41:42;7.33;6.98;5.20;2.83;22.93;22.86;22.48;20.12;13.75;0.96
71906;SPS30;59781;52.090;5.030;2023-02-25T04:44:09;7.39;7.03;5.22;2.82;22.83;22.76;22.37;19.97;13.56;0.97
71906;SPS30;59781;52.090;5.030;2023-02-25T04:46:36;8.29;7.86;5.75;2.96;23.98;23.90;23.44;20.65;13.57;1.01
71906;SPS30;59781;52.090;5.030;2023-02-25T04:49:06;8.46;8.02;5.79;2.88;23.36;23.28;22.80;19.88;12.72;1.03
71906;SPS30;59781;52.090;5.030;2023-02-25T04:51:34;9.11;8.62;6.20;3.03;24.62;24.53;24.01;20.83;13.16;1.05
71906;SPS30;59781;52.090;5.030;2023-02-25T04:54:02;7.77;7.37;5.37;2.74;22.21;22.14;21.71;19.07;12.45;1.00
71906;SPS30;59781;52.090;5.030;2023-02-25T04:56:28;8.14;7.71;5.59;2.79;22.67;22.59;22.13;19.34;12.44;1.02
71906;SPS30;59781;52.090;5.030;2023-02-25T04:58:55;8.53;8.08;5.83;2.88;23.35;23.27;22.78;19.82;12.61;1.04
71906;SPS30;59781;52.090;5.030;2023-02-25T05:01:22;8.26;7.84;5.70;2.89;23.40;23.32;22.86;20.04;13.01;1.02
71906;SPS30;59781;52.090;5.030;2023-02-25T05:03:47;7.67;7.28;5.33;2.76;22.33;22.26;21.83;19.26;12.69;1.01
71906;SPS30;59781;52.090;5.030;2023-02-25T05:06:14;8.82;8.37;6.12;3.16;25.57;25.49;25.00;22.04;14.50;1.01
71906;SPS30;59781;52.090;5.030;2023-02-25T05:08:40;7.47;7.09;5.19;2.69;21.81;21.74;21.33;18.82;12.43;1.01
71906;SPS30;59781;52.090;5.030;2023-02-25T05:11:06;7.87;7.48;5.49;2.88;23.30;23.22;22.79;20.17;13.42;1.00
71906;SPS30;59781;52.090;5.030;2023-02-25T05:13:31;7.87;7.48;5.49;2.87;23.23;23.15;22.72;20.10;13.35;1.00
71906;SPS30;59781;52.090;5.030;2023-02-25T05:16:04;7.58;7.20;5.29;2.78;22.48;22.41;22.00;19.48;12.97;1.01
71906;SPS30;59781;52.090;5.030;2023-02-25T05:18:37;8.31;7.88;5.74;2.91;23.63;23.55;23.09;20.26;13.19;1.05
71906;SPS30;59781;52.090;5.030;2023-02-25T05:21:09;7.91;7.49;5.39;2.65;21.51;21.44;20.98;18.23;11.56;1.07
71906;SPS30;59781;52.090;5.030;2023-02-25T05:23:45;8.49;8.04;5.77;2.80;22.74;22.65;22.16;19.18;12.04;1.08
71906;SPS30;59781;52.090;5.030;2023-02-25T05:26:14;9.04;8.56;6.13;2.97;24.11;24.02;23.50;20.33;12.73;1.07
71906;SPS30;59781;52.090;5.030;2023-02-25T05:28:42;8.49;8.05;5.83;2.93;23.74;23.66;23.19;20.27;13.07;1.02
71906;SPS30;59781;52.090;5.030;2023-02-25T05:31:09;8.61;8.18;6.02;3.17;25.63;25.55;25.09;22.23;14.83;0.99
71906;SPS30;59781;52.090;5.030;2023-02-25T05:33:37;7.66;7.27;5.31;2.72;22.08;22.00;21.58;18.99;12.45;1.01
71906;SPS30;59781;52.090;5.030;2023-02-25T05:36:05;8.11;7.69;5.57;2.79;22.67;22.59;22.14;19.35;12.48;1.01
71906;SPS30;59781;52.090;5.030;2023-02-25T05:38:32;8.24;7.80;5.62;2.76;22.41;22.33;21.86;19.00;12.05;1.04
71906;SPS30;59781;52.090;5.030;2023-02-25T05:40:59;7.97;7.56;5.50;2.80;22.68;22.61;22.16;19.45;12.67;1.02
71906;SPS30;59781;52.090;5.030;2023-02-25T05:43:25;8.10;7.69;5.65;2.96;23.97;23.90;23.46;20.77;13.82;0.99
71906;SPS30;59781;52.090;5.030;2023-02-25T05:45:52;7.17;6.82;5.04;2.68;21.71;21.65;21.26;18.91;12.72;0.99
71906;SPS30;59781;52.090;5.030;2023-02-25T05:48:20;7.37;6.99;5.12;2.64;21.43;21.36;20.95;18.48;12.18;1.02
71906;SPS30;59781;52.090;5.030;2023-02-25T05:50:47;8.67;8.23;6.01;3.09;25.02;24.94;24.46;21.53;14.13;1.03
71906;SPS30;59781;52.090;5.030;2023-02-25T05:53:16;8.19;7.76;5.61;2.80;22.70;22.62;22.16;19.34;12.41;1.06
71906;SPS30;59781;52.090;5.030;2023-02-25T05:55:44;7.96;7.54;5.41;2.63;21.36;21.28;20.82;18.03;11.33;1.08
71906;SPS30;59781;52.090;5.030;2023-02-25T05:58:11;9.40;8.90;6.39;3.11;25.22;25.13;24.59;21.29;13.38;1.07
71906;SPS30;59781;52.090;5.030;2023-02-25T06:00:37;9.22;8.72;6.21;2.94;23.93;23.84;23.30;20.02;12.31;1.08
71906;SPS30;59781;52.090;5.030;2023-02-25T06:03:04;8.43;7.98;5.72;2.77;22.50;22.42;21.94;18.98;11.89;1.06
71906;SPS30;59781;52.090;5.030;2023-02-25T06:05:30;8.61;8.16;5.91;2.96;24.03;23.94;23.46;20.50;13.20;1.02
71906;SPS30;59781;52.090;5.030;2023-02-25T06:07:56;8.85;8.39;6.08;3.05;24.76;24.68;24.18;21.14;13.63;1.03
71906;SPS30;59781;52.090;5.030;2023-02-25T06:10:26;8.94;8.47;6.09;2.99;24.27;24.18;23.67;20.55;13.01;1.06
71906;SPS30;59781;52.090;5.030;2023-02-25T06:12:52;9.99;9.46;6.79;3.30;26.76;26.66;26.09;22.58;14.18;1.05
71906;SPS30;59781;52.090;5.030;2023-02-25T06:15:18;9.38;8.89;6.40;3.16;25.61;25.52;24.98;21.72;13.80;1.02
71906;SPS30;59781;52.090;5.030;2023-02-25T06:17:43;10.56;10.00;7.21;3.56;28.89;28.78;28.18;24.52;15.60;1.05
71906;SPS30;59781;52.090;5.030;2023-02-25T06:20:09;9.33;8.85;6.44;3.28;26.61;26.52;26.00;22.83;14.89;1.02
71906;SPS30;59781;52.090;5.030;2023-02-25T06:22:35;9.60;9.11;6.66;3.43;27.79;27.70;27.17;23.93;15.73;1.01
71906;SPS30;59781;52.090;5.030;2023-02-25T06:25:01;9.49;8.98;6.46;3.15;25.60;25.51;24.96;21.65;13.66;1.06
71906;SPS30;59781;52.090;5.030;2023-02-25T06:27:27;10.95;10.36;7.39;3.52;28.63;28.52;27.88;23.99;14.83;1.08
71906;SPS30;59781;52.090;5.030;2023-02-25T06:29:55;9.82;9.29;6.63;3.17;25.74;25.64;25.07;21.59;13.37;1.09
71906;SPS30;59781;52.090;5.030;2023-02-25T06:32:21;11.03;10.44;7.48;3.61;29.35;29.24;28.60;24.72;15.46;1.07
71906;SPS30;59781;52.090;5.030;2023-02-25T06:34:46;11.14;10.53;7.52;3.59;29.20;29.09;28.45;24.50;15.17;1.09
71906;SPS30;59781;52.090;5.030;2023-02-25T06:37:12;12.08;11.43;8.18;3.93;31.95;31.83;31.13;26.87;16.74;1.09
71906;SPS30;59781;52.090;5.030;2023-02-25T06:39:38;10.61;10.05;7.23;3.54;28.72;28.62;28.01;24.31;15.36;1.08
71906;SPS30;59781;52.090;5.030;2023-02-25T06:42:07;10.11;9.58;6.92;3.44;27.94;27.84;27.27;23.78;15.23;1.07
71906;SPS30;59781;52.090;5.030;2023-02-25T06:44:34;9.66;9.16;6.65;3.36;27.22;27.13;26.59;23.29;15.08;1.05
71906;SPS30;59781;52.090;5.030;2023-02-25T06:47:00;10.75;10.18;7.36;3.66;29.68;29.58;28.97;25.26;16.16;1.04
71906;SPS30;59781;52.090;5.030;2023-02-25T06:49:26;11.05;10.48;7.59;3.80;30.82;30.71;30.09;26.29;16.92;1.03
71906;SPS30;59781;52.090;5.030;2023-02-25T06:51:54;9.96;9.45;6.93;3.59;29.13;29.03;28.49;25.15;16.62;1.01
71906;SPS30;59781;52.090;5.030;2023-02-25T06:54:19;10.53;9.99;7.31;3.78;30.62;30.52;29.94;26.40;17.40;1.01
71906;SPS30;59781;52.090;5.030;2023-02-25T06:56:45;9.70;9.21;6.74;3.50;28.33;28.24;27.71;24.45;16.15;1.01
71906;SPS30;59781;52.090;5.030;2023-02-25T06:59:11;9.48;9.00;6.57;3.38;27.36;27.27;26.75;23.55;15.45;1.03
71906;SPS30;59781;52.090;5.030;2023-02-25T07:01:37;9.67;9.17;6.65;3.36;27.24;27.15;26.61;23.31;15.09;1.04
71906;SPS30;59781;52.090;5.030;2023-02-25T07:04:03;10.35;9.82;7.14;3.62;29.37;29.27;28.69;25.17;16.36;1.03
71906;SPS30;59781;52.090;5.030;2023-02-25T07:06:29;11.12;10.54;7.64;3.84;31.13;31.03;30.40;26.59;17.15;1.03
71906;SPS30;59781;52.090;5.030;2023-02-25T07:08:55;10.26;9.73;7.10;3.63;29.46;29.36;28.79;25.32;16.57;1.00
71906;SPS30;59781;52.090;5.030;2023-02-25T07:11:25;8.91;8.47;6.25;3.33;26.96;26.88;26.40;23.48;15.79;0.97
71906;SPS30;59781;52.090;5.030;2023-02-25T07:13:57;10.05;9.52;6.88;3.42;27.75;27.65;27.08;23.61;15.11;1.04
71906;SPS30;59781;52.090;5.030;2023-02-25T07:16:24;10.62;10.06;7.29;3.65;29.63;29.52;28.93;25.28;16.27;1.04
71906;SPS30;59781;52.090;5.030;2023-02-25T07:18:50;10.65;10.10;7.32;3.69;29.92;29.82;29.22;25.58;16.54;1.03
71906;SPS30;59781;52.090;5.030;2023-02-25T07:21:16;10.28;9.73;6.99;3.40;27.61;27.51;26.92;23.32;14.67;1.07
71906;SPS30;59781;52.090;5.030;2023-02-25T07:23:43;10.94;10.35;7.40;3.56;28.90;28.79;28.16;24.30;15.13;1.07
71906;SPS30;59781;52.090;5.030;2023-02-25T07:26:11;11.53;10.90;7.79;3.73;30.33;30.22;29.55;25.47;15.81;1.07
71906;SPS30;59781;52.090;5.030;2023-02-25T07:28:38;11.21;10.61;7.60;3.68;29.88;29.77;29.13;25.19;15.77;1.07
71906;SPS30;59781;52.090;5.030;2023-02-25T07:31:15;10.01;9.50;6.94;3.57;28.90;28.81;28.25;24.88;16.32;1.02
71906;SPS30;59781;52.090;5.030;2023-02-25T07:33:43;9.49;9.02;6.64;3.50;28.37;28.28;27.77;24.63;16.46;1.00
71906;SPS30;59781;52.090;5.030;2023-02-25T07:36:10;9.87;9.37;6.87;3.57;28.92;28.83;28.29;24.99;16.54;1.00
71906;SPS30;59781;52.090;5.030;2023-02-25T07:38:37;9.62;9.13;6.67;3.43;27.82;27.73;27.20;23.96;15.74;1.00
71906;SPS30;59781;52.090;5.030;2023-02-25T07:41:08;10.03;9.52;6.99;3.64;29.48;29.38;28.84;25.49;16.89;0.99
71906;SPS30;59781;52.090;5.030;2023-02-25T07:43:42;10.14;9.63;7.07;3.71;30.02;29.92;29.37;26.00;17.30;0.99
71906;SPS30;59781;52.090;5.030;2023-02-25T07:46:09;8.91;8.47;6.29;3.40;27.54;27.45;26.98;24.09;16.37;0.97
71906;SPS30;59781;52.090;5.030;2023-02-25T07:48:37;9.62;9.14;6.79;3.67;29.70;29.61;29.10;25.98;17.65;0.97
71906;SPS30;59781;52.090;5.030;2023-02-25T07:51:11;9.30;8.84;6.55;3.53;28.55;28.47;27.97;24.95;16.90;0.99
71906;SPS30;59781;52.090;5.030;2023-02-25T07:53:41;9.94;9.44;6.93;3.62;29.36;29.27;28.73;25.41;16.88;1.01
71906;SPS30;59781;52.090;5.030;2023-02-25T07:56:07;9.53;9.05;6.68;3.55;28.75;28.66;28.15;25.01;16.80;1.01
71906;SPS30;59781;52.090;5.030;2023-02-25T07:58:33;9.84;9.35;6.89;3.64;29.44;29.35;28.82;25.56;17.10;1.01
71906;SPS30;59781;52.090;5.030;2023-02-25T08:01:00;8.80;8.38;6.27;3.48;28.11;28.03;27.57;24.78;17.10;0.96
71906;SPS30;59781;52.090;5.030;2023-02-25T08:03:30;8.91;8.48;6.37;3.55;28.73;28.65;28.19;25.38;17.58;0.96
71906;SPS30;59781;52.090;5.030;2023-02-25T08:05:56;9.56;9.09;6.73;3.60;29.13;29.04;28.53;25.40;17.14;1.00
71906;SPS30;59781;52.090;5.030;2023-02-25T08:08:23;9.10;8.65;6.42;3.46;28.03;27.95;27.47;24.51;16.63;1.00
71906;SPS30;59781;52.090;5.030;2023-02-25T08:10:49;9.47;9.01;6.69;3.63;29.35;29.26;28.77;25.70;17.49;1.00
71906;SPS30;59781;52.090;5.030;2023-02-25T08:13:15;8.26;7.86;5.87;3.23;26.09;26.01;25.58;22.94;15.74;0.98
71906;SPS30;59781;52.090;5.030;2023-02-25T08:15:41;8.44;8.04;6.05;3.39;27.42;27.34;26.91;24.26;16.86;0.96
71906;SPS30;59781;52.090;5.030;2023-02-25T08:18:08;8.94;8.52;6.41;3.59;29.03;28.95;28.49;25.68;17.85;0.95
71906;SPS30;59781;52.090;5.030;2023-02-25T08:20:36;8.76;8.33;6.18;3.33;26.95;26.87;26.41;23.56;15.97;0.97
71906;SPS30;59781;52.090;5.030;2023-02-25T08:23:02;8.90;8.47;6.33;3.48;28.13;28.05;27.59;24.74;16.99;0.96
71906;SPS30;59781;52.090;5.030;2023-02-25T08:25:31;9.49;9.04;6.76;3.73;30.19;30.11;29.61;26.59;18.31;0.97
71906;SPS30;59781;52.090;5.030;2023-02-25T08:27:57;8.96;8.53;6.36;3.49;28.20;28.12;27.65;24.78;16.98;0.97
71906;SPS30;59781;52.090;5.030;2023-02-25T08:30:22;10.66;10.12;7.43;3.88;31.45;31.35;30.77;27.22;18.08;1.00
71906;SPS30;59781;52.090;5.030;2023-02-25T08:32:48;9.69;9.20;6.73;3.48;28.23;28.14;27.61;24.35;16.06;1.01
71906;SPS30;59781;52.090;5.030;2023-02-25T08:35:14;10.21;9.70;7.14;3.77;30.54;30.44;29.89;26.51;17.73;1.00
71906;SPS30;59781;52.090;5.030;2023-02-25T08:37:39;8.56;8.14;6.05;3.28;26.51;26.43;25.98;23.20;15.78;0.97
71906;SPS30;59781;52.090;5.030;2023-02-25T08:40:09;10.06;9.55;7.02;3.67;29.76;29.67;29.12;25.78;17.14;1.01
71906;SPS30;59781;52.090;5.030;2023-02-25T08:42:37;7.16;6.80;5.02;2.66;21.52;21.45;21.06;18.70;12.53;0.99
71906;SPS30;59781;52.090;5.030;2023-02-25T08:45:03;5.92;5.63;4.16;2.22;17.94;17.89;17.57;15.63;10.52;0.98
71906;SPS30;59781;52.090;5.030;2023-02-25T08:47:29;5.77;5.48;4.04;2.14;17.30;17.25;16.94;15.03;10.07;0.99
71906;SPS30;59781;52.090;5.030;2023-02-25T08:49:55;4.93;4.68;3.43;1.77;14.36;14.31;14.04;12.38;8.16;1.00
71906;SPS30;59781;52.090;5.030;2023-02-25T08:52:21;5.06;4.80;3.53;1.84;14.91;14.86;14.58;12.89;8.55;0.98
71906;SPS30;59781;52.090;5.030;2023-02-25T08:54:47;4.45;4.23;3.13;1.69;13.65;13.61;13.38;11.93;8.08;0.95
71906;SPS30;59781;52.090;5.030;2023-02-25T08:57:12;4.05;3.85;2.88;1.59;12.88;12.84;12.63;11.34;7.81;0.92
71906;SPS30;59781;52.090;5.030;2023-02-25T08:59:38;7.22;6.90;5.28;3.10;25.01;24.95;24.60;22.43;16.00;0.89
71906;SPS30;59781;52.090;5.030;2023-02-25T09:02:05;4.41;4.23;3.34;2.13;17.15;17.11;16.92;15.71;11.67;0.85
71906;SPS30;59781;52.090;5.030;2023-02-25T09:04:39;4.03;3.86;3.04;1.90;15.34;15.31;15.13;14.00;10.33;0.87
71906;SPS30;59781;52.090;5.030;2023-02-25T09:07:05;4.59;4.39;3.37;2.01;16.21;16.17;15.95;14.59;10.48;0.92
71906;SPS30;59781;52.090;5.030;2023-02-25T09:09:31;4.65;4.44;3.39;1.97;15.87;15.83;15.60;14.19;10.06;0.94
71906;SPS30;59781;52.090;5.030;2023-02-25T09:11:58;4.83;4.62;3.55;2.11;17.04;17.00;16.76;15.33;11.01;0.91
71906;SPS30;59781;52.090;5.030;2023-02-25T09:14:25;5.33;5.09;3.86;2.22;17.94;17.89;17.63;15.99;11.28;0.93
71906;SPS30;59781;52.090;5.030;2023-02-25T09:16:51;6.26;5.96;4.48;2.50;20.25;20.19;19.87;17.90;12.42;0.96
71906;SPS30;59781;52.090;5.030;2023-02-25T09:19:17;6.69;6.37;4.80;2.70;21.86;21.80;21.46;19.37;13.50;0.95
71906;SPS30;59781;52.090;5.030;2023-02-25T09:21:44;7.53;7.17;5.39;3.02;24.38;24.31;23.93;21.56;14.96;0.95
71906;SPS30;59781;52.090;5.030;2023-02-25T09:24:14;7.41;7.08;5.44;3.22;25.97;25.91;25.55;23.34;16.73;0.92
71906;SPS30;59781;52.090;5.030;2023-02-25T09:26:41;6.86;6.53;4.92;2.77;22.40;22.34;22.00;19.85;13.83;0.96
71906;SPS30;59781;52.090;5.030;2023-02-25T09:29:07;5.87;5.59;4.21;2.36;19.07;19.02;18.72;16.87;11.73;0.95
71906;SPS30;59781;52.090;5.030;2023-02-25T09:31:33;6.22;5.92;4.44;2.47;19.99;19.93;19.61;17.65;12.21;0.95
71906;SPS30;59781;52.090;5.030;2023-02-25T09:34:02;5.68;5.41;4.04;2.22;17.93;17.88;17.58;15.76;10.81;0.96
71906;SPS30;59781;52.090;5.030;2023-02-25T09:36:33;5.44;5.18;3.90;2.20;17.74;17.69;17.42;15.72;10.95;0.94
71906;SPS30;59781;52.090;5.030;2023-02-25T09:38:59;5.36;5.11;3.88;2.23;17.98;17.93;17.67;16.02;11.29;0.93
71906;SPS30;59781;52.090;5.030;2023-02-25T09:44:03;4.60;4.38;3.26;1.79;14.45;14.41;14.17;12.69;8.69;0.97